Time;durP1;ratioP1;P1;durP2;ratioP2;P2;SDS_P1;SDS_P2;PMS_P1;PMS_P2;Temp;Humidity;BMP_temperature;BMP_pressure;BME280_temperature;BME280_humidity;BME280_pressure;Samples;Min_cycle;Max_cycle;Signal;HPM_P1;HPM_P2
2023/06/22 00:01:29;;;;;;;23.50;16.20;;;;;;;;;;5051944;28;20044;-57
2023/06/22 00:03:55;;;;;;;23.38;17.02;;;;;;;;;;5051826;28;20473;-56
2023/06/22 00:06:21;;;;;;;23.63;16.90;;;;;;;;;;5052105;28;20575;-56
2023/06/22 00:08:47;;;;;;;22.30;16.40;;;;;;;;;;5034136;28;20036;-53
2023/06/22 00:11:13;;;;;;;21.85;17.30;;;;;;;;;;5051852;28;20021;-51
2023/06/22 00:13:40;;;;;;;22.17;17.17;;;;;;;;;;5051814;28;20017;-56
2023/06/22 00:16:06;;;;;;;22.55;17.30;;;;;;;;;;5051519;28;20054;-55
2023/06/22 00:18:32;;;;;;;22.40;17.15;;;;;;;;;;5051782;28;20584;-55
2023/06/22 00:20:58;;;;;;;25.58;16.95;;;;;;;;;;5051846;28;20124;-55
2023/06/22 00:23:24;;;;;;;22.75;16.95;;;;;;;;;;5033732;28;20064;-55
2023/06/22 00:25:50;;;;;;;22.90;17.67;;;;;;;;;;5051409;28;20021;-55
2023/06/22 00:28:16;;;;;;;22.30;17.35;;;;;;;;;;5033712;28;20028;-56
2023/06/22 00:30:42;;;;;;;22.90;16.90;;;;;;;;;;5051629;28;20393;-54
2023/06/22 00:33:08;;;;;;;23.15;17.20;;;;;;;;;;5033761;28;20078;-54
2023/06/22 00:35:34;;;;;;;22.42;16.83;;;;;;;;;;5051169;28;20041;-57
2023/06/22 00:38:01;;;;;;;21.50;16.73;;;;;;;;;;5051731;28;20024;-53
2023/06/22 00:40:28;;;;;;;22.40;17.00;;;;;;;;;;5051736;28;20082;-55
2023/06/22 00:42:54;;;;;;;23.48;17.13;;;;;;;;;;5051841;28;20112;-60
2023/06/22 00:45:22;;;;;;;24.63;17.77;;;;;;;;;;5051646;28;20056;-57
2023/06/22 00:47:48;;;;;;;21.23;15.77;;;;;;;;;;5052005;28;20021;-59
2023/06/22 00:50:20;;;;;;;23.42;18.27;;;;;;;;;;5052050;28;20029;-57
2023/06/22 00:52:47;;;;;;;21.83;15.90;;;;;;;;;;5052715;28;20472;-56
2023/06/22 00:55:13;;;;;;;25.85;17.10;;;;;;;;;;5055855;28;20473;-56
2023/06/22 00:57:39;;;;;;;22.63;16.23;;;;;;;;;;5038019;28;20030;-59
2023/06/22 01:00:07;;;;;;;22.77;18.08;;;;;;;;;;5055990;28;20021;-57
2023/06/22 01:02:34;;;;;;;23.88;17.25;;;;;;;;;;5055949;28;20025;-57
2023/06/22 01:04:59;;;;;;;23.02;17.10;;;;;;;;;;5054998;28;20578;-56
2023/06/22 01:07:30;;;;;;;23.67;17.85;;;;;;;;;;5055328;28;20025;-54
2023/06/22 01:10:17;;;;;;;23.02;16.90;;;;;;;;;;5055365;28;20025;-58
2023/06/22 01:12:45;;;;;;;22.15;16.63;;;;;;;;;;5055060;28;20033;-59
2023/06/22 01:15:31;;;;;;;23.05;17.13;;;;;;;;;;5037108;28;20404;-56
2023/06/22 01:17:58;;;;;;;22.77;17.58;;;;;;;;;;5055292;28;20045;-58
2023/06/22 01:20:26;;;;;;;21.50;16.67;;;;;;;;;;5055202;28;20586;-54
2023/06/22 01:23:12;;;;;;;20.88;16.58;;;;;;;;;;5055049;28;20040;-58
2023/06/22 01:25:58;;;;;;;22.98;16.83;;;;;;;;;;5038083;28;20056;-59
2023/06/22 01:28:36;;;;;;;23.48;18.10;;;;;;;;;;5054453;28;20523;-56
2023/06/22 01:31:05;;;;;;;23.38;16.73;;;;;;;;;;5055171;28;20056;-55
2023/06/22 01:33:33;;;;;;;24.10;17.13;;;;;;;;;;5054714;28;20024;-58
2023/06/22 01:36:00;;;;;;;23.48;17.50;;;;;;;;;;5054723;28;20027;-55
2023/06/22 01:38:26;;;;;;;23.92;18.33;;;;;;;;;;5054948;28;20401;-52
2023/06/22 01:40:52;;;;;;;22.02;17.02;;;;;;;;;;5055009;28;20028;-59
2023/06/22 01:43:19;;;;;;;22.45;17.92;;;;;;;;;;5036634;28;20499;-57
2023/06/22 01:45:45;;;;;;;23.95;17.73;;;;;;;;;;5054434;28;20025;-55
2023/06/22 01:48:11;;;;;;;22.70;17.02;;;;;;;;;;5036691;28;20025;-55
2023/06/22 01:50:37;;;;;;;23.77;17.30;;;;;;;;;;5054398;28;20099;-54
2023/06/22 01:53:05;;;;;;;23.60;18.42;;;;;;;;;;5054572;28;20105;-57
2023/06/22 01:55:31;;;;;;;22.52;17.63;;;;;;;;;;5054285;28;20096;-52
2023/06/22 01:57:57;;;;;;;24.52;18.52;;;;;;;;;;5054537;28;20021;-57
2023/06/22 02:00:24;;;;;;;26.45;18.23;;;;;;;;;;5071389;28;20056;-55
2023/06/22 02:02:56;;;;;;;28.23;18.17;;;;;;;;;;5074251;28;20024;-57
2023/06/22 02:05:23;;;;;;;24.02;18.27;;;;;;;;;;5073785;28;20743;-57
2023/06/22 02:07:58;;;;;;;24.50;19.13;;;;;;;;;;5074034;28;20504;-55
2023/06/22 02:10:25;;;;;;;23.98;18.23;;;;;;;;;;5074154;28;20174;-56
2023/06/22 02:12:52;;;;;;;24.90;18.85;;;;;;;;;;5074100;28;20020;-54
2023/06/22 02:15:18;;;;;;;28.45;19.02;;;;;;;;;;5073870;28;20096;-58
2023/06/22 02:17:44;;;;;;;23.67;18.52;;;;;;;;;;5074010;28;20028;-53
2023/06/22 02:20:14;;;;;;;24.27;18.08;;;;;;;;;;5074028;28;20044;-57
2023/06/22 02:22:40;;;;;;;25.50;17.95;;;;;;;;;;5056134;28;20063;-54
2023/06/22 02:25:06;;;;;;;24.85;18.23;;;;;;;;;;5073479;28;20074;-56
2023/06/22 02:27:32;;;;;;;25.05;19.67;;;;;;;;;;5073925;28;20025;-56
2023/06/22 02:29:58;;;;;;;25.67;19.38;;;;;;;;;;5073830;28;20147;-57
2023/06/22 02:32:24;;;;;;;25.17;19.17;;;;;;;;;;5073769;28;20048;-59
2023/06/22 02:34:50;;;;;;;24.38;18.38;;;;;;;;;;5081409;28;20066;-58
2023/06/22 02:37:16;;;;;;;25.23;20.00;;;;;;;;;;5085440;28;20044;-56
2023/06/22 02:39:42;;;;;;;25.42;19.30;;;;;;;;;;5091344;28;20074;-58
2023/06/22 02:42:10;;;;;;;24.38;18.08;;;;;;;;;;5088018;28;20028;-58
2023/06/22 02:44:36;;;;;;;22.60;18.45;;;;;;;;;;5093585;28;20032;-58
2023/06/22 02:47:02;;;;;;;23.50;17.95;;;;;;;;;;5092517;28;20027;-56
2023/06/22 02:49:28;;;;;;;24.50;18.20;;;;;;;;;;5084846;28;20111;-54
2023/06/22 02:51:55;;;;;;;23.63;18.80;;;;;;;;;;5085776;28;20057;-55
2023/06/22 02:54:21;;;;;;;27.38;18.92;;;;;;;;;;5084741;28;20099;-55
2023/06/22 02:56:48;;;;;;;23.02;18.08;;;;;;;;;;5075321;28;20058;-56
2023/06/22 02:59:14;;;;;;;23.00;18.15;;;;;;;;;;5085152;28;20020;-58
2023/06/22 03:01:40;;;;;;;23.42;18.58;;;;;;;;;;5084702;28;20021;-58
2023/06/22 03:04:09;;;;;;;25.45;18.80;;;;;;;;;;5092995;28;20028;-56
2023/06/22 03:06:36;;;;;;;24.77;19.33;;;;;;;;;;5084695;28;20480;-56
2023/06/22 03:09:04;;;;;;;24.88;19.52;;;;;;;;;;5093354;28;20430;-58
2023/06/22 03:11:30;;;;;;;23.98;18.73;;;;;;;;;;5093395;28;20431;-57
2023/06/22 03:13:56;;;;;;;24.98;19.25;;;;;;;;;;5093092;28;20023;-58
2023/06/22 03:16:22;;;;;;;25.05;19.90;;;;;;;;;;5084555;28;20017;-55
2023/06/22 03:18:49;;;;;;;24.63;19.05;;;;;;;;;;5092737;28;20476;-58
2023/06/22 03:21:15;;;;;;;26.77;20.00;;;;;;;;;;5093010;28;20030;-56
2023/06/22 03:23:42;;;;;;;26.27;18.77;;;;;;;;;;5092574;28;20070;-58
2023/06/22 03:26:09;;;;;;;23.98;19.30;;;;;;;;;;5092645;28;20487;-55
2023/06/22 03:28:35;;;;;;;24.38;19.05;;;;;;;;;;5092788;28;20041;-57
2023/06/22 03:31:01;;;;;;;24.70;19.20;;;;;;;;;;5092620;28;20046;-56
2023/06/22 03:33:27;;;;;;;24.92;19.30;;;;;;;;;;5092417;28;20012;-55
2023/06/22 03:35:53;;;;;;;24.02;19.55;;;;;;;;;;5092041;28;20095;-55
2023/06/22 03:38:19;;;;;;;25.05;20.27;;;;;;;;;;5074336;28;20020;-55
2023/06/22 03:40:45;;;;;;;25.65;19.80;;;;;;;;;;5092596;28;20042;-58
2023/06/22 03:43:11;;;;;;;29.35;20.60;;;;;;;;;;5092386;28;20031;-55
2023/06/22 03:45:37;;;;;;;24.70;19.20;;;;;;;;;;5092218;28;20036;-53
2023/06/22 03:48:03;;;;;;;26.52;19.80;;;;;;;;;;5092210;28;20111;-56
2023/06/22 03:50:29;;;;;;;25.75;20.35;;;;;;;;;;5092434;28;20447;-57
2023/06/22 03:52:55;;;;;;;23.98;18.98;;;;;;;;;;5092412;28;20058;-57
2023/06/22 03:55:22;;;;;;;25.70;19.52;;;;;;;;;;5091809;28;20112;-54
2023/06/22 03:57:48;;;;;;;24.58;18.95;;;;;;;;;;5092511;28;20377;-58
2023/06/22 04:00:15;;;;;;;24.27;18.30;;;;;;;;;;5092008;28;20027;-57
2023/06/22 04:02:41;;;;;;;23.23;18.03;;;;;;;;;;5091844;28;20081;-54
2023/06/22 04:05:09;;;;;;;25.10;18.38;;;;;;;;;;5091773;28;20589;-55
2023/06/22 04:07:36;;;;;;;24.48;18.80;;;;;;;;;;5092079;28;20017;-57
2023/06/22 04:10:03;;;;;;;22.90;18.45;;;;;;;;;;5091957;28;20024;-54
2023/06/22 04:12:29;;;;;;;26.15;19.63;;;;;;;;;;5073862;28;20057;-55
2023/06/22 04:14:55;;;;;;;24.42;19.00;;;;;;;;;;5091480;28;20024;-56
2023/06/22 04:17:21;;;;;;;25.50;19.65;;;;;;;;;;5073613;28;20020;-58
2023/06/22 04:19:47;;;;;;;25.35;19.08;;;;;;;;;;5091958;28;20487;-57
2023/06/22 04:22:13;;;;;;;26.75;22.77;;;;;;;;;;5091737;28;20499;-54
2023/06/22 04:24:39;;;;;;;25.80;20.95;;;;;;;;;;5091240;28;20032;-56
2023/06/22 04:27:05;;;;;;;24.92;20.10;;;;;;;;;;5090999;28;20533;-58
2023/06/22 04:29:31;;;;;;;23.08;17.92;;;;;;;;;;5091782;28;20090;-58
2023/06/22 04:31:58;;;;;;;27.35;20.02;;;;;;;;;;5091682;28;20384;-57
2023/06/22 04:34:28;;;;;;;25.00;19.95;;;;;;;;;;5091801;28;20024;-58
2023/06/22 04:36:54;;;;;;;25.90;19.60;;;;;;;;;;5092297;28;20514;-57
2023/06/22 04:39:20;;;;;;;23.92;18.98;;;;;;;;;;5091904;28;20038;-57
2023/06/22 04:41:46;;;;;;;24.92;19.33;;;;;;;;;;5093214;28;20044;-58
2023/06/22 04:44:23;;;;;;;30.45;21.13;;;;;;;;;;5092380;28;20035;-57
2023/06/22 04:46:53;;;;;;;27.25;19.85;;;;;;;;;;5085001;28;20028;-55
2023/06/22 04:49:20;;;;;;;25.48;19.33;;;;;;;;;;5087929;28;20438;-56
2023/06/22 04:51:46;;;;;;;27.33;21.08;;;;;;;;;;5092960;28;20020;-58
2023/06/22 04:54:12;;;;;;;24.98;19.00;;;;;;;;;;5092426;28;20016;-54
2023/06/22 04:56:40;;;;;;;25.88;19.50;;;;;;;;;;5091958;28;20392;-54
2023/06/22 04:59:07;;;;;;;24.58;19.73;;;;;;;;;;5091955;28;20149;-56
2023/06/22 05:01:34;;;;;;;27.17;19.60;;;;;;;;;;5073142;28;20028;-55
2023/06/22 05:04:02;;;;;;;22.40;17.77;;;;;;;;;;5091251;28;20023;-53
2023/06/22 05:06:28;;;;;;;26.23;19.80;;;;;;;;;;5091181;28;20186;-59
2023/06/22 05:08:57;;;;;;;24.63;18.27;;;;;;;;;;5091020;28;20054;-58
2023/06/22 05:11:29;;;;;;;22.92;17.95;;;;;;;;;;5083187;28;20481;-58
2023/06/22 05:13:55;;;;;;;24.60;17.25;;;;;;;;;;5050554;28;20029;-58
2023/06/22 05:16:24;;;;;;;25.02;20.42;;;;;;;;;;5050884;28;20025;-53
2023/06/22 05:18:56;;;;;;;27.00;23.27;;;;;;;;;;5050820;28;20028;-58
2023/06/22 05:21:23;;;;;;;26.40;19.63;;;;;;;;;;5050805;28;20535;-56
2023/06/22 05:23:49;;;;;;;25.73;20.15;;;;;;;;;;5051301;28;20458;-58
2023/06/22 05:26:15;;;;;;;23.92;18.40;;;;;;;;;;5050529;28;20060;-55
2023/06/22 05:28:45;;;;;;;27.15;17.65;;;;;;;;;;5050734;28;20119;-57
2023/06/22 05:31:11;;;;;;;25.60;18.75;;;;;;;;;;5032790;28;20021;-55
2023/06/22 05:33:37;;;;;;;27.90;21.27;;;;;;;;;;5050373;28;20029;-58
2023/06/22 05:36:03;;;;;;;27.40;18.05;;;;;;;;;;5050444;28;20021;-56
2023/06/22 05:38:29;;;;;;;26.27;19.40;;;;;;;;;;5050690;28;20025;-54
2023/06/22 05:40:55;;;;;;;26.92;20.55;;;;;;;;;;5054532;28;20029;-56
2023/06/22 05:43:21;;;;;;;24.15;17.38;;;;;;;;;;5054667;28;20021;-57
2023/06/22 05:45:47;;;;;;;27.10;19.40;;;;;;;;;;5053762;28;20135;-54
2023/06/22 05:48:13;;;;;;;25.08;18.02;;;;;;;;;;5054122;28;20025;-55
2023/06/22 05:50:39;;;;;;;26.90;18.25;;;;;;;;;;5036196;28;20025;-54
2023/06/22 05:53:06;;;;;;;25.52;18.02;;;;;;;;;;5053943;28;20492;-57
2023/06/22 05:55:33;;;;;;;25.58;20.45;;;;;;;;;;5053852;28;20043;-53
2023/06/22 05:57:59;;;;;;;27.02;22.00;;;;;;;;;;5054184;28;20017;-56
2023/06/22 06:00:25;;;;;;;25.58;18.55;;;;;;;;;;5053887;28;20438;-58
2023/06/22 06:02:51;;;;;;;27.80;19.80;;;;;;;;;;5053802;28;20496;-52
2023/06/22 06:05:18;;;;;;;24.15;18.23;;;;;;;;;;5054055;28;20029;-56
2023/06/22 06:07:45;;;;;;;22.42;17.70;;;;;;;;;;5053801;28;20497;-53
2023/06/22 06:10:11;;;;;;;22.25;17.35;;;;;;;;;;5035809;28;20047;-57
2023/06/22 06:12:37;;;;;;;23.85;17.55;;;;;;;;;;5035690;28;20021;-57
2023/06/22 06:15:23;;;;;;;25.15;19.05;;;;;;;;;;5054568;28;20388;-63
2023/06/22 06:17:50;;;;;;;23.80;16.95;;;;;;;;;;5053909;28;20104;-58
2023/06/22 06:20:18;;;;;;;27.15;18.13;;;;;;;;;;5053621;28;20029;-55
2023/06/22 06:22:44;;;;;;;25.65;18.80;;;;;;;;;;5035933;28;20388;-57
2023/06/22 06:25:15;;;;;;;24.98;17.88;;;;;;;;;;5053043;28;20028;-55
2023/06/22 06:27:41;;;;;;;23.30;17.00;;;;;;;;;;5070763;28;20103;-53
2023/06/22 06:30:08;;;;;;;24.17;17.10;;;;;;;;;;5072852;28;20155;-56
2023/06/22 06:32:34;;;;;;;27.95;18.08;;;;;;;;;;5073057;28;20089;-58
2023/06/22 06:34:59;;;;;;;26.67;18.27;;;;;;;;;;5055354;28;20103;-55
2023/06/22 06:37:25;;;;;;;24.45;17.88;;;;;;;;;;5073859;28;20024;-53
2023/06/22 06:39:51;;;;;;;24.30;17.50;;;;;;;;;;5073265;28;20522;-55
2023/06/22 06:42:19;;;;;;;31.38;19.88;;;;;;;;;;5072903;28;20024;-50
2023/06/22 06:44:45;;;;;;;28.10;17.67;;;;;;;;;;5072742;28;20074;-54
2023/06/22 06:47:11;;;;;;;28.02;17.42;;;;;;;;;;5072909;28;20028;-56
2023/06/22 06:49:37;;;;;;;25.30;18.17;;;;;;;;;;5072417;28;20078;-55
2023/06/22 06:52:03;;;;;;;28.45;18.02;;;;;;;;;;5072092;28;20032;-54
2023/06/22 06:54:29;;;;;;;24.67;17.55;;;;;;;;;;5072576;28;20078;-51
2023/06/22 06:56:55;;;;;;;24.67;17.10;;;;;;;;;;5073855;28;20546;-56
2023/06/22 06:59:21;;;;;;;22.17;16.48;;;;;;;;;;5054955;28;20028;-54
2023/06/22 07:01:48;;;;;;;27.65;18.45;;;;;;;;;;5072930;28;20108;-57
2023/06/22 07:04:14;;;;;;;24.77;18.67;;;;;;;;;;5072381;28;20036;-56
2023/06/22 07:06:40;;;;;;;24.75;17.92;;;;;;;;;;5072830;28;20029;-49
2023/06/22 07:09:06;;;;;;;21.75;16.80;;;;;;;;;;5072899;28;20032;-55
2023/06/22 07:11:32;;;;;;;22.77;17.83;;;;;;;;;;5072603;28;20065;-57
2023/06/22 07:13:58;;;;;;;22.90;17.63;;;;;;;;;;5072403;28;20028;-55
2023/06/22 07:16:25;;;;;;;25.45;17.67;;;;;;;;;;5054653;28;20388;-55
2023/06/22 07:18:51;;;;;;;22.80;17.88;;;;;;;;;;5072499;28;20098;-55
2023/06/22 07:21:17;;;;;;;21.90;18.45;;;;;;;;;;5072493;28;20484;-56
2023/06/22 07:23:47;;;;;;;23.23;17.90;;;;;;;;;;5072965;28;20111;-53
2023/06/22 07:26:13;;;;;;;22.25;17.27;;;;;;;;;;5049053;28;20025;-54
2023/06/22 07:28:40;;;;;;;21.17;17.30;;;;;;;;;;5052382;28;20025;-59
2023/06/22 07:31:06;;;;;;;23.52;17.92;;;;;;;;;;5034455;28;20032;-53
2023/06/22 07:33:33;;;;;;;23.30;17.92;;;;;;;;;;5052268;28;20021;-53
2023/06/22 07:35:58;;;;;;;22.42;18.73;;;;;;;;;;5033939;28;20393;-51
2023/06/22 07:38:24;;;;;;;24.05;18.90;;;;;;;;;;5052149;28;20025;-52
2023/06/22 07:40:53;;;;;;;22.70;19.17;;;;;;;;;;5051791;28;20036;-50
2023/06/22 07:43:19;;;;;;;23.33;17.83;;;;;;;;;;5051797;28;20029;-55
2023/06/22 07:45:52;;;;;;;25.08;18.65;;;;;;;;;;5051529;28;20066;-53
2023/06/22 07:48:18;;;;;;;23.83;18.42;;;;;;;;;;5051574;28;20079;-51
2023/06/22 07:50:44;;;;;;;21.95;18.83;;;;;;;;;;5051589;28;20070;-52
2023/06/22 07:53:10;;;;;;;24.52;19.90;;;;;;;;;;5051456;28;20028;-48
2023/06/22 07:55:36;;;;;;;32.17;27.65;;;;;;;;;;5051064;28;20024;-53
2023/06/22 07:58:02;;;;;;;30.48;26.40;;;;;;;;;;5051504;28;20535;-48
2023/06/22 08:00:28;;;;;;;25.73;21.05;;;;;;;;;;5039625;28;20027;-52
2023/06/22 08:02:54;;;;;;;23.77;19.67;;;;;;;;;;5071248;28;20031;-51
2023/06/22 08:05:20;;;;;;;24.75;19.63;;;;;;;;;;5071259;28;20020;-50
2023/06/22 08:07:46;;;;;;;22.65;19.30;;;;;;;;;;5071437;28;20574;-54
2023/06/22 08:10:12;;;;;;;26.67;18.90;;;;;;;;;;5071345;28;20032;-50
2023/06/22 08:12:39;;;;;;;22.77;19.88;;;;;;;;;;5071376;28;20068;-53
2023/06/22 08:15:06;;;;;;;28.92;24.00;;;;;;;;;;5071196;28;20499;-53
2023/06/22 08:17:32;;;;;;;24.65;18.67;;;;;;;;;;5053567;28;20012;-53
2023/06/22 08:19:58;;;;;;;28.08;20.40;;;;;;;;;;5071223;28;20476;-54
2023/06/22 08:22:24;;;;;;;26.50;18.85;;;;;;;;;;5070945;28;20028;-53
2023/06/22 08:24:50;;;;;;;24.70;19.58;;;;;;;;;;5070786;28;20032;-53
2023/06/22 08:27:18;;;;;;;31.45;20.08;;;;;;;;;;5068033;28;20029;-51
2023/06/22 08:29:45;;;;;;;24.10;19.73;;;;;;;;;;5051322;28;20127;-53
2023/06/22 08:32:11;;;;;;;23.17;19.65;;;;;;;;;;5032944;28;20022;-53
2023/06/22 08:34:42;;;;;;;23.60;18.30;;;;;;;;;;5050675;28;20104;-52
2023/06/22 08:37:08;;;;;;;24.63;20.02;;;;;;;;;;5033081;28;20370;-54
2023/06/22 08:39:34;;;;;;;22.63;18.50;;;;;;;;;;5051154;28;20341;-54
2023/06/22 08:42:00;;;;;;;24.60;20.73;;;;;;;;;;5051096;28;20496;-52
2023/06/22 08:44:26;;;;;;;24.83;20.20;;;;;;;;;;5050790;28;20033;-53
2023/06/22 08:46:52;;;;;;;23.13;19.35;;;;;;;;;;5051023;28;20143;-53
2023/06/22 08:49:18;;;;;;;25.13;20.25;;;;;;;;;;5033091;28;20627;-51
2023/06/22 08:51:45;;;;;;;24.10;19.75;;;;;;;;;;5050891;28;20033;-50
2023/06/22 08:54:11;;;;;;;26.88;20.15;;;;;;;;;;5032865;28;20029;-51
2023/06/22 08:56:37;;;;;;;24.45;20.10;;;;;;;;;;5051001;28;20028;-49
2023/06/22 08:59:03;;;;;;;25.10;21.27;;;;;;;;;;5051233;28;20024;-50
2023/06/22 09:01:29;;;;;;;29.55;25.92;;;;;;;;;;5051008;28;20112;-54
2023/06/22 09:03:57;;;;;;;24.58;20.67;;;;;;;;;;5050703;28;20035;-52
2023/06/22 09:06:23;;;;;;;22.95;20.00;;;;;;;;;;5050996;28;20033;-50
2023/06/22 09:08:49;;;;;;;23.83;20.58;;;;;;;;;;5050977;28;20037;-49
2023/06/22 09:11:15;;;;;;;24.48;19.83;;;;;;;;;;5051161;28;20096;-54
2023/06/22 09:13:42;;;;;;;24.55;19.90;;;;;;;;;;5051621;28;20025;-50
2023/06/22 09:16:08;;;;;;;24.17;19.88;;;;;;;;;;5054895;28;20021;-50
2023/06/22 09:18:37;;;;;;;23.10;20.60;;;;;;;;;;5054941;28;20090;-50
2023/06/22 09:21:03;;;;;;;23.15;20.65;;;;;;;;;;5054895;28;20535;-51
2023/06/22 09:23:29;;;;;;;24.92;20.67;;;;;;;;;;5054775;28;20039;-48
2023/06/22 09:25:55;;;;;;;24.75;19.90;;;;;;;;;;5036632;28;20029;-49
2023/06/22 09:28:21;;;;;;;22.27;19.60;;;;;;;;;;5072537;28;20089;-47
2023/06/22 09:30:47;;;;;;;25.75;21.90;;;;;;;;;;5073883;28;20481;-50
2023/06/22 09:33:13;;;;;;;24.95;20.67;;;;;;;;;;5074017;28;20112;-50
2023/06/22 09:35:39;;;;;;;25.45;20.92;;;;;;;;;;5073174;28;20047;-54
2023/06/22 09:38:05;;;;;;;24.65;22.02;;;;;;;;;;5074123;28;20021;-49
2023/06/22 09:40:35;;;;;;;25.92;22.42;;;;;;;;;;5074064;28;20036;-48
2023/06/22 09:43:01;;;;;;;25.95;21.25;;;;;;;;;;5056282;28;20021;-48
2023/06/22 09:45:27;;;;;;;25.08;21.50;;;;;;;;;;5073810;28;20040;-50
2023/06/22 09:47:53;;;;;;;27.05;22.35;;;;;;;;;;5073926;28;20028;-54
2023/06/22 09:50:19;;;;;;;24.95;22.25;;;;;;;;;;5091789;28;20043;-53
2023/06/22 09:52:50;;;;;;;25.70;21.20;;;;;;;;;;5086051;28;20016;-54
2023/06/22 09:55:16;;;;;;;23.10;19.48;;;;;;;;;;5094215;28;20066;-51
2023/06/22 09:57:42;;;;;;;23.08;20.60;;;;;;;;;;5085656;28;20016;-49
2023/06/22 10:00:09;;;;;;;23.20;20.63;;;;;;;;;;5094101;28;20027;-50
2023/06/22 10:02:35;;;;;;;22.60;20.17;;;;;;;;;;5074825;28;20020;-53
2023/06/22 10:05:01;;;;;;;22.33;19.65;;;;;;;;;;5085428;28;20031;-51
2023/06/22 10:07:27;;;;;;;23.10;20.70;;;;;;;;;;5085059;28;20434;-48
2023/06/22 10:09:53;;;;;;;23.77;20.70;;;;;;;;;;5093925;28;20103;-49
2023/06/22 10:12:19;;;;;;;23.45;20.92;;;;;;;;;;5094088;28;20156;-50
2023/06/22 10:14:45;;;;;;;24.40;21.23;;;;;;;;;;5075539;28;20020;-54
2023/06/22 10:17:11;;;;;;;22.92;20.42;;;;;;;;;;5093951;28;20024;-53
2023/06/22 10:19:38;;;;;;;22.17;18.40;;;;;;;;;;5093836;28;20028;-52
2023/06/22 10:22:05;;;;;;;24.38;20.73;;;;;;;;;;5093291;28;20359;-50
2023/06/22 10:24:31;;;;;;;22.58;20.17;;;;;;;;;;5093103;28;20056;-50
2023/06/22 10:26:57;;;;;;;24.15;21.30;;;;;;;;;;5093496;28;20099;-53
2023/06/22 10:29:23;;;;;;;23.77;21.13;;;;;;;;;;5072284;28;20177;-50
2023/06/22 10:31:49;;;;;;;25.27;21.35;;;;;;;;;;5073574;28;20027;-54
2023/06/22 10:34:15;;;;;;;24.40;20.85;;;;;;;;;;5073551;28;20037;-52
2023/06/22 10:36:41;;;;;;;23.40;20.83;;;;;;;;;;5073315;28;20062;-50
2023/06/22 10:39:07;;;;;;;23.23;20.83;;;;;;;;;;5072658;28;20028;-53
2023/06/22 10:41:33;;;;;;;22.70;20.27;;;;;;;;;;5073147;28;20385;-53
2023/06/22 10:43:59;;;;;;;22.70;20.23;;;;;;;;;;5072955;28;20032;-51
2023/06/22 10:46:25;;;;;;;23.05;20.55;;;;;;;;;;5073239;28;20088;-51
2023/06/22 10:48:54;;;;;;;23.35;20.88;;;;;;;;;;5073501;28;20025;-51
2023/06/22 10:51:20;;;;;;;22.83;20.33;;;;;;;;;;5073143;28;20044;-50
2023/06/22 10:53:46;;;;;;;23.10;20.55;;;;;;;;;;5072838;28;20123;-52
2023/06/22 10:56:12;;;;;;;23.77;20.73;;;;;;;;;;5073062;28;20111;-53
2023/06/22 10:58:38;;;;;;;23.48;21.08;;;;;;;;;;5073084;28;20025;-50
2023/06/22 11:01:04;;;;;;;23.58;20.73;;;;;;;;;;5073135;28;20082;-52
2023/06/22 11:03:30;;;;;;;23.73;20.73;;;;;;;;;;5071762;28;20027;-55
2023/06/22 11:05:56;;;;;;;27.50;21.45;;;;;;;;;;5072617;28;20070;-53
2023/06/22 11:08:22;;;;;;;24.75;21.15;;;;;;;;;;5072748;28;20496;-54
2023/06/22 11:10:48;;;;;;;24.55;21.60;;;;;;;;;;5072133;28;20065;-54
2023/06/22 11:13:14;;;;;;;23.40;20.90;;;;;;;;;;5072601;28;20527;-50
2023/06/22 11:15:41;;;;;;;24.85;22.25;;;;;;;;;;5072278;28;20107;-54
2023/06/22 11:18:07;;;;;;;23.58;20.92;;;;;;;;;;5072640;28;20029;-50
2023/06/22 11:20:38;;;;;;;23.27;20.80;;;;;;;;;;5072653;28;20025;-52
2023/06/22 11:23:04;;;;;;;23.10;20.60;;;;;;;;;;5089837;28;20484;-54
2023/06/22 11:25:30;;;;;;;21.75;19.42;;;;;;;;;;5084016;28;20012;-54
2023/06/22 11:27:56;;;;;;;24.48;21.25;;;;;;;;;;5083843;28;20029;-54
2023/06/22 11:30:23;;;;;;;24.15;21.55;;;;;;;;;;5071403;28;20071;-54
2023/06/22 11:32:49;;;;;;;24.00;21.50;;;;;;;;;;5071581;28;20028;-53
2023/06/22 11:35:15;;;;;;;23.50;20.83;;;;;;;;;;5053733;28;20070;-52
2023/06/22 11:37:42;;;;;;;25.40;21.27;;;;;;;;;;5071338;28;20103;-51
2023/06/22 11:40:09;;;;;;;25.03;21.77;;;;;;;;;;5070855;28;20082;-53
2023/06/22 11:42:35;;;;;;;24.17;21.30;;;;;;;;;;5088099;28;20433;-53
2023/06/22 11:45:01;;;;;;;24.58;22.00;;;;;;;;;;5082983;28;20656;-52
2023/06/22 11:47:27;;;;;;;25.08;22.33;;;;;;;;;;5071343;28;20524;-50
2023/06/22 11:49:53;;;;;;;28.05;22.73;;;;;;;;;;5072438;28;20114;-53
2023/06/22 11:52:19;;;;;;;25.60;22.88;;;;;;;;;;5076138;28;20017;-48
2023/06/22 11:54:45;;;;;;;25.45;22.75;;;;;;;;;;5079545;28;20433;-54
2023/06/22 11:57:11;;;;;;;25.77;22.80;;;;;;;;;;5069543;28;20046;-48
2023/06/22 11:59:37;;;;;;;29.42;26.23;;;;;;;;;;5086309;28;20032;-50
2023/06/22 12:02:05;;;;;;;25.67;22.92;;;;;;;;;;5082840;28;20019;-52
2023/06/22 12:04:31;;;;;;;27.48;23.30;;;;;;;;;;5091295;28;20110;-50
2023/06/22 12:06:58;;;;;;;26.00;22.67;;;;;;;;;;5091460;28;20031;-55
2023/06/22 12:09:24;;;;;;;25.42;21.80;;;;;;;;;;5091299;28;20560;-51
2023/06/22 12:11:50;;;;;;;26.83;23.00;;;;;;;;;;5084761;28;20020;-50
2023/06/22 12:14:16;;;;;;;23.73;20.05;;;;;;;;;;5068653;28;20033;-51
2023/06/22 12:16:43;;;;;;;25.17;22.42;;;;;;;;;;5070964;28;20049;-51
2023/06/22 12:19:09;;;;;;;26.27;22.90;;;;;;;;;;5070898;28;20074;-55
2023/06/22 12:21:35;;;;;;;25.67;22.83;;;;;;;;;;5070669;28;20589;-51
2023/06/22 12:24:01;;;;;;;25.17;21.73;;;;;;;;;;5070107;28;20122;-49
2023/06/22 12:26:27;;;;;;;26.25;23.17;;;;;;;;;;5070438;28;20028;-54
2023/06/22 12:28:53;;;;;;;27.98;23.92;;;;;;;;;;5069767;28;20507;-50
2023/06/22 12:31:19;;;;;;;27.27;23.48;;;;;;;;;;5070386;28;20024;-50
2023/06/22 12:33:45;;;;;;;28.35;21.08;;;;;;;;;;5076540;28;20013;-53
2023/06/22 12:36:11;;;;;;;24.40;21.40;;;;;;;;;;5090581;28;20078;-54
2023/06/22 12:38:37;;;;;;;24.15;21.25;;;;;;;;;;5081975;28;20425;-53
2023/06/22 12:41:03;;;;;;;24.83;21.95;;;;;;;;;;4715021;28;10000554;-53
2023/06/22 12:43:29;;;;;;;25.25;22.05;;;;;;;;;;5060030;28;20032;-53
2023/06/22 12:45:55;;;;;;;27.98;24.98;;;;;;;;;;5056782;28;20136;-56
2023/06/22 12:48:22;;;;;;;24.65;21.95;;;;;;;;;;5068223;28;20051;-55
2023/06/22 12:50:48;;;;;;;25.30;22.30;;;;;;;;;;4716374;28;10000278;-53
2023/06/22 12:53:14;;;;;;;26.92;22.25;;;;;;;;;;5067366;28;20053;-55
2023/06/22 12:55:40;;;;;;;25.88;22.15;;;;;;;;;;5067213;28;20462;-53
2023/06/22 12:58:06;;;;;;;26.70;22.95;;;;;;;;;;5063323;28;20028;-54
2023/06/22 13:00:32;;;;;;;28.17;23.95;;;;;;;;;;5046433;28;20033;-55
2023/06/22 13:02:58;;;;;;;31.63;23.80;;;;;;;;;;5048060;28;20041;-55
2023/06/22 13:05:24;;;;;;;30.55;23.35;;;;;;;;;;5047535;28;20029;-55
2023/06/22 13:07:50;;;;;;;35.10;24.60;;;;;;;;;;5047943;28;20036;-54
2023/06/22 13:10:16;;;;;;;30.77;26.10;;;;;;;;;;5047468;28;20489;-53
2023/06/22 13:12:42;;;;;;;29.33;26.23;;;;;;;;;;5047290;28;20025;-53
2023/06/22 13:15:08;;;;;;;30.20;26.40;;;;;;;;;;5051213;28;20500;-55
2023/06/22 13:17:34;;;;;;;30.27;26.00;;;;;;;;;;5067922;28;20027;-49
2023/06/22 13:20:00;;;;;;;30.60;25.90;;;;;;;;;;5069424;28;20017;-55
2023/06/22 13:22:27;;;;;;;28.63;25.52;;;;;;;;;;5069231;28;20035;-55
2023/06/22 13:24:53;;;;;;;31.10;25.08;;;;;;;;;;5071101;28;20044;-53
2023/06/22 13:27:19;;;;;;;30.65;27.23;;;;;;;;;;5070176;28;20119;-61
2023/06/22 13:29:45;;;;;;;29.00;25.60;;;;;;;;;;5070527;28;20025;-59
2023/06/22 13:32:11;;;;;;;30.02;25.55;;;;;;;;;;5070322;28;20519;-60
2023/06/22 13:34:37;;;;;;;30.50;25.33;;;;;;;;;;5069819;28;20469;-62
2023/06/22 13:37:04;;;;;;;30.27;25.30;;;;;;;;;;5071226;28;20081;-59
2023/06/22 13:39:30;;;;;;;32.00;27.77;;;;;;;;;;5070660;28;20070;-59
2023/06/22 13:41:56;;;;;;;31.33;26.48;;;;;;;;;;5070371;28;20401;-58
2023/06/22 13:44:22;;;;;;;29.27;26.08;;;;;;;;;;5068869;28;20071;-61
2023/06/22 13:46:48;;;;;;;30.05;25.13;;;;;;;;;;5070256;28;20055;-62
2023/06/22 13:49:14;;;;;;;31.52;26.67;;;;;;;;;;5070440;28;20021;-60
2023/06/22 13:51:40;;;;;;;29.70;24.30;;;;;;;;;;5069051;28;20024;-59
2023/06/22 13:54:06;;;;;;;29.75;25.20;;;;;;;;;;5069997;28;20035;-61
2023/06/22 13:56:33;;;;;;;30.83;25.45;;;;;;;;;;5070123;28;20103;-53
2023/06/22 13:58:59;;;;;;;28.25;24.98;;;;;;;;;;5070166;28;20035;-60
2023/06/22 14:01:25;;;;;;;29.05;24.85;;;;;;;;;;5073292;28;20025;-59
2023/06/22 14:03:51;;;;;;;28.88;24.65;;;;;;;;;;5074007;28;20024;-56
2023/06/22 14:06:17;;;;;;;28.40;25.40;;;;;;;;;;5073408;28;20048;-57
2023/06/22 14:08:43;;;;;;;28.00;25.00;;;;;;;;;;5072392;28;20056;-61
2023/06/22 14:11:09;;;;;;;26.85;23.73;;;;;;;;;;5073878;28;20472;-61
2023/06/22 14:13:35;;;;;;;26.80;23.02;;;;;;;;;;5072254;28;20025;-60